createdAt,value
2022-09-30T03:04:04.052Z,6.79
2022-09-30T03:06:30.533Z,6.71
2022-09-30T03:08:58.376Z,6.77
2022-09-30T03:11:28.230Z,6.68
2022-09-30T03:14:32.599Z,6.77
2022-09-30T03:17:21.599Z,6.79
2022-09-30T03:20:21.141Z,6.79
2022-09-30T03:23:09.841Z,6.84
2022-09-30T03:25:56.033Z,6.77
2022-09-30T03:28:51.772Z,6.87
2022-09-30T03:31:39.114Z,6.83
2022-09-30T03:34:08.225Z,6.82
2022-09-30T03:36:51.034Z,6.85
2022-09-30T03:39:36.080Z,6.71
2022-09-30T03:42:22.755Z,6.80
2022-09-30T03:45:13.989Z,6.66
2022-09-30T03:47:46.203Z,6.64
2022-09-30T03:50:17.253Z,6.65
2022-09-30T03:52:43.709Z,6.67
2022-09-30T03:55:11.686Z,6.61
2022-09-30T03:57:38.532Z,6.61
2022-09-30T04:00:07.102Z,6.45
2022-09-30T04:02:37.495Z,6.38
2022-09-30T04:05:05.499Z,6.44
2022-09-30T04:07:32.478Z,6.45
2022-09-30T04:09:59.069Z,6.56
2022-09-30T04:12:25.811Z,6.35
2022-09-30T04:14:52.326Z,6.13
2022-09-30T04:17:18.786Z,6.17
2022-09-30T04:19:45.298Z,6.32
2022-09-30T04:22:11.744Z,6.41
2022-09-30T04:24:39.414Z,6.47
2022-09-30T04:27:05.941Z,6.41
2022-09-30T04:29:32.384Z,6.38
2022-09-30T04:31:58.890Z,6.36
2022-09-30T04:34:25.601Z,6.37
2022-09-30T04:36:52.019Z,6.40
2022-09-30T04:39:18.469Z,6.40
2022-09-30T04:41:44.946Z,6.35
2022-09-30T04:44:11.951Z,6.35
2022-09-30T04:46:38.362Z,6.35
2022-09-30T04:49:09.094Z,6.36
2022-09-30T04:51:38.292Z,6.33
2022-09-30T04:54:04.804Z,6.35
2022-09-30T04:56:31.352Z,6.29
2022-09-30T04:58:57.821Z,6.28
2022-09-30T05:01:24.486Z,6.22
2022-09-30T05:03:51.017Z,6.16
2022-09-30T05:06:17.556Z,6.16
2022-09-30T05:08:46.138Z,6.26
2022-09-30T05:11:18.828Z,6.27
2022-09-30T05:13:45.615Z,6.30
2022-09-30T05:16:13.046Z,6.30
2022-09-30T05:18:42.034Z,6.25
2022-09-30T05:21:08.547Z,6.27
2022-09-30T05:23:35.044Z,6.23
2022-09-30T05:26:03.428Z,6.30
2022-09-30T05:28:31.398Z,6.24
2022-09-30T05:31:00.108Z,6.18
2022-09-30T05:33:29.488Z,6.35
2022-09-30T05:35:59.510Z,6.35
2022-09-30T05:38:25.931Z,6.42
2022-09-30T05:40:52.725Z,6.47
2022-09-30T05:43:19.347Z,6.40
2022-09-30T05:45:54.169Z,6.43
2022-09-30T05:48:20.715Z,6.57
2022-09-30T05:50:50.482Z,6.62
2022-09-30T05:53:20.053Z,6.44
2022-09-30T05:55:47.507Z,5.94
2022-09-30T05:58:17.570Z,6.17
2022-09-30T06:00:46.451Z,6.02
2022-09-30T06:03:13.871Z,6.12
2022-09-30T06:05:40.927Z,6.19
2022-09-30T06:08:07.858Z,6.13
2022-09-30T06:10:35.605Z,6.46
2022-09-30T06:13:05.465Z,6.66
2022-09-30T06:15:32.561Z,6.65
2022-09-30T06:17:58.989Z,6.80
2022-09-30T06:20:25.729Z,6.86
2022-09-30T06:22:52.305Z,6.82
2022-09-30T06:25:18.821Z,6.87
2022-09-30T06:27:48.704Z,6.98
2022-09-30T06:30:15.253Z,7.09
2022-09-30T06:32:42.542Z,6.97
2022-09-30T06:35:10.200Z,7.14
2022-09-30T06:37:39.346Z,7.28
2022-09-30T06:40:06.555Z,7.28
2022-09-30T06:42:33.208Z,7.33
2022-09-30T06:44:59.712Z,7.40
2022-09-30T06:47:26.655Z,8.19
2022-09-30T06:49:58.365Z,8.16
2022-09-30T06:52:26.292Z,8.50
2022-09-30T06:54:52.993Z,9.23
2022-09-30T06:57:22.510Z,9.86
2022-09-30T06:59:50.233Z,9.90
2022-09-30T07:02:17.119Z,10.29
2022-09-30T07:04:43.724Z,10.34
2022-09-30T07:07:10.708Z,10.89
2022-09-30T07:09:37.183Z,11.59
2022-09-30T07:12:04.709Z,12.27
2022-09-30T07:14:31.975Z,12.80
2022-09-30T07:16:58.540Z,13.26
2022-09-30T07:19:25.036Z,13.76
2022-09-30T07:21:51.561Z,13.83
2022-09-30T07:24:18.375Z,14.42
2022-09-30T07:26:45.383Z,13.97
2022-09-30T07:29:13.837Z,14.10
2022-09-30T07:31:41.001Z,13.85
2022-09-30T07:34:09.297Z,14.06
2022-09-30T07:36:39.061Z,13.97
2022-09-30T07:39:08.380Z,14.45
2022-09-30T07:41:38.870Z,14.42
2022-09-30T07:44:07.827Z,13.56
2022-09-30T07:46:38.602Z,14.90
2022-09-30T07:49:08.387Z,14.86
2022-09-30T07:51:37.470Z,16.01
2022-09-30T07:54:07.706Z,15.77
2022-09-30T07:56:58.166Z,15.39
2022-09-30T07:59:27.147Z,15.55
2022-09-30T08:01:54.071Z,16.07
2022-09-30T08:04:22.128Z,16.20
2022-09-30T08:06:51.788Z,16.84
2022-09-30T08:09:21.083Z,16.33
2022-09-30T08:11:48.108Z,16.72
2022-09-30T08:14:17.238Z,17.23
2022-09-30T08:16:43.954Z,17.20
2022-09-30T08:19:16.170Z,16.93
2022-09-30T08:21:43.425Z,17.19
2022-09-30T08:24:11.635Z,16.91
2022-09-30T08:26:38.695Z,17.14
2022-09-30T08:29:05.855Z,17.75
2022-09-30T08:31:33.352Z,17.47
2022-09-30T08:34:00.647Z,17.00
2022-09-30T08:36:27.835Z,17.07
2022-09-30T08:38:54.684Z,16.93
2022-09-30T08:41:39.257Z,17.25
2022-09-30T08:44:24.108Z,17.96
2022-09-30T08:47:08.185Z,18.37
2022-09-30T08:49:34.552Z,16.72
2022-09-30T08:52:02.639Z,17.67
2022-09-30T08:54:37.807Z,18.27
2022-09-30T08:57:06.601Z,17.34
2022-09-30T08:59:38.190Z,17.38
2022-09-30T09:02:12.969Z,17.92
2022-09-30T09:04:43.565Z,17.83
2022-09-30T09:07:23.868Z,17.63
2022-09-30T09:10:11.825Z,17.80
2022-09-30T09:12:56.349Z,19.10
2022-09-30T09:15:28.715Z,18.96
2022-09-30T09:18:26.580Z,19.94
2022-09-30T09:21:09.344Z,17.98
2022-09-30T09:23:36.347Z,19.22
2022-09-30T09:26:04.644Z,20.27
2022-09-30T09:28:35.425Z,20.03
2022-09-30T09:31:03.016Z,19.06
2022-09-30T09:33:32.035Z,19.36
2022-09-30T09:36:01.243Z,20.75
2022-09-30T09:38:36.009Z,21.02
2022-09-30T09:41:17.665Z,19.75
2022-09-30T09:43:51.638Z,19.18
2022-09-30T09:46:41.199Z,19.82
2022-09-30T09:49:13.435Z,19.73
2022-09-30T09:51:48.227Z,20.09
2022-09-30T09:54:20.031Z,20.30
2022-09-30T09:56:46.422Z,20.57
2022-09-30T09:59:19.847Z,20.07
2022-09-30T10:01:54.206Z,21.10
2022-09-30T10:04:27.565Z,21.47
2022-09-30T10:06:57.786Z,21.11
2022-09-30T10:09:39.182Z,20.72
2022-09-30T10:12:05.554Z,19.73
2022-09-30T10:14:49.933Z,19.71
2022-09-30T10:17:29.426Z,20.95
2022-09-30T10:20:01.137Z,20.06
2022-09-30T10:22:30.562Z,20.09
2022-09-30T10:25:18.065Z,20.07
2022-09-30T10:27:50.932Z,20.22
2022-09-30T10:30:31.930Z,20.01
2022-09-30T10:32:59.289Z,19.84
2022-09-30T10:35:25.736Z,19.81
2022-09-30T10:37:54.404Z,20.19
2022-09-30T10:40:27.512Z,19.32
2022-09-30T10:42:55.338Z,19.93
2022-09-30T10:45:25.578Z,20.55
2022-09-30T10:47:55.459Z,19.88
2022-09-30T10:50:27.697Z,19.00
2022-09-30T10:53:01.709Z,19.52
2022-09-30T10:55:41.558Z,20.00
2022-09-30T10:58:22.307Z,18.76
2022-09-30T11:01:16.810Z,20.11
2022-09-30T11:03:54.088Z,18.97
2022-09-30T11:06:22.549Z,19.25
2022-09-30T11:08:52.541Z,20.78
2022-09-30T11:11:27.920Z,21.31
2022-09-30T11:13:55.625Z,21.40
2022-09-30T11:16:49.184Z,18.86
2022-09-30T11:19:39.845Z,18.66
2022-09-30T11:22:38.587Z,19.66
2022-09-30T11:25:10.860Z,18.79
2022-09-30T11:27:38.142Z,18.98
2022-09-30T11:30:17.605Z,18.98
2022-09-30T11:33:00.074Z,20.21
2022-09-30T11:36:01.802Z,20.43
2022-09-30T11:38:43.433Z,21.19
2022-09-30T11:41:18.682Z,18.67
2022-09-30T11:44:03.393Z,20.48
2022-09-30T11:47:02.145Z,21.73
2022-09-30T11:49:34.442Z,22.48
2022-09-30T11:52:15.806Z,23.61
2022-09-30T11:54:52.675Z,24.21
2022-09-30T11:57:21.409Z,25.00
2022-09-30T11:59:59.873Z,25.81
2022-09-30T12:02:33.693Z,24.07
2022-09-30T12:05:13.028Z,25.73
2022-09-30T12:07:45.035Z,25.54
2022-09-30T12:10:27.629Z,22.42
2022-09-30T12:13:00.118Z,22.64
2022-09-30T12:15:27.610Z,22.75
2022-09-30T12:18:09.562Z,22.42
2022-09-30T12:20:51.789Z,20.74
2022-09-30T12:23:20.995Z,19.02
2022-09-30T12:25:54.742Z,19.25
2022-09-30T12:28:55.209Z,18.87
2022-09-30T12:32:01.399Z,19.74
2022-09-30T12:34:55.361Z,21.04
2022-09-30T12:37:31.001Z,21.20
2022-09-30T12:40:25.299Z,22.88
2022-09-30T12:42:59.546Z,24.00
2022-09-30T12:46:02.892Z,24.90
2022-09-30T12:48:44.033Z,23.73
2022-09-30T12:51:20.763Z,23.23
2022-09-30T12:53:51.564Z,22.48
2022-09-30T12:56:18.832Z,21.34
2022-09-30T12:58:49.601Z,20.02
2022-09-30T13:01:23.407Z,19.90
2022-09-30T13:04:16.665Z,19.77
2022-09-30T13:06:46.094Z,19.58
2022-09-30T13:09:31.254Z,17.96
2022-09-30T13:11:57.659Z,17.60
2022-09-30T13:14:43.400Z,17.16
2022-09-30T13:17:13.001Z,17.38
2022-09-30T13:19:40.920Z,17.30
2022-09-30T13:22:39.742Z,17.40
2022-09-30T13:25:14.021Z,17.11
2022-09-30T13:28:14.100Z,17.44
2022-09-30T13:30:40.624Z,17.59
2022-09-30T13:33:28.803Z,16.92
2022-09-30T13:35:58.842Z,16.66
2022-09-30T13:38:40.393Z,16.61
2022-09-30T13:41:15.695Z,16.83
2022-09-30T13:43:56.495Z,16.64
2022-09-30T13:46:30.212Z,16.92
2022-09-30T13:49:34.061Z,17.14
2022-09-30T13:52:02.342Z,16.63
2022-09-30T13:54:36.395Z,16.49
2022-09-30T13:57:06.586Z,16.40
2022-09-30T14:00:00.194Z,16.16
2022-09-30T14:02:43.163Z,16.26
2022-09-30T14:05:39.765Z,16.54
2022-09-30T14:08:21.343Z,16.86
2022-09-30T14:11:09.310Z,16.67
2022-09-30T14:14:12.537Z,16.43
2022-09-30T14:16:53.844Z,16.67
2022-09-30T14:19:32.373Z,16.77
2022-09-30T14:22:05.031Z,16.65
2022-09-30T14:24:37.826Z,16.41
2022-09-30T14:27:29.522Z,16.33
2022-09-30T14:30:16.825Z,16.70
2022-09-30T14:32:59.409Z,16.21
2022-09-30T14:35:29.483Z,15.97
2022-09-30T14:38:05.470Z,15.85
2022-09-30T14:40:40.135Z,15.79
2022-09-30T14:43:12.871Z,15.97
2022-09-30T14:45:43.110Z,16.18
2022-09-30T14:48:15.596Z,16.02
2022-09-30T14:50:48.415Z,15.68
2022-09-30T14:53:35.489Z,15.75
2022-09-30T14:56:06.707Z,16.00
2022-09-30T14:58:42.426Z,16.24
2022-09-30T15:01:17.452Z,16.19
2022-09-30T15:03:47.802Z,16.13
2022-09-30T15:06:20.665Z,16.10
2022-09-30T15:08:49.393Z,15.94
2022-09-30T15:11:21.539Z,16.01
2022-09-30T15:13:51.748Z,15.96
2022-09-30T15:16:25.992Z,16.23
2022-09-30T15:18:53.879Z,16.34
2022-09-30T15:21:22.237Z,16.18
2022-09-30T15:23:52.248Z,16.34
2022-09-30T15:26:21.383Z,16.48
2022-09-30T15:28:47.970Z,16.37
2022-09-30T15:31:29.126Z,16.46
2022-09-30T15:34:12.782Z,16.02
2022-09-30T15:36:39.606Z,15.87
2022-09-30T15:39:17.061Z,15.90
2022-09-30T15:41:43.590Z,15.48
2022-09-30T15:44:19.378Z,15.34
2022-09-30T15:47:03.073Z,15.45
2022-09-30T15:49:32.509Z,15.46
2022-09-30T15:52:30.478Z,15.20
2022-09-30T15:54:57.737Z,15.41
2022-09-30T15:57:45.844Z,15.19
2022-09-30T16:00:47.939Z,15.41
2022-09-30T16:03:26.548Z,15.09
2022-09-30T16:05:54.879Z,15.43
2022-09-30T16:08:25.517Z,15.33
2022-09-30T16:10:53.984Z,15.29
2022-09-30T16:13:29.918Z,15.11
2022-09-30T16:15:58.329Z,15.15
2022-09-30T16:18:34.068Z,15.01
2022-09-30T16:21:04.959Z,14.84
2022-09-30T16:23:42.272Z,14.69
2022-09-30T16:26:20.683Z,14.85
2022-09-30T16:28:47.641Z,15.03
2022-09-30T16:31:15.342Z,14.89
2022-09-30T16:33:44.209Z,14.61
2022-09-30T16:36:11.952Z,14.83
2022-09-30T16:38:38.726Z,14.74
2022-09-30T16:41:05.425Z,14.84
2022-09-30T16:43:32.205Z,14.92
2022-09-30T16:45:59.816Z,14.83
2022-09-30T16:48:27.208Z,14.68
2022-09-30T16:51:15.690Z,14.59
2022-09-30T16:53:43.092Z,14.67
2022-09-30T16:56:17.248Z,14.72
2022-09-30T16:58:47.046Z,14.63
2022-09-30T17:01:24.269Z,14.60
2022-09-30T17:03:52.492Z,14.65
2022-09-30T17:06:21.011Z,14.22
2022-09-30T17:08:50.268Z,14.44
2022-09-30T17:11:16.689Z,14.35
2022-09-30T17:13:43.477Z,14.17
2022-09-30T17:16:09.989Z,14.27
2022-09-30T17:18:36.459Z,13.98
2022-09-30T17:21:03.371Z,13.96
2022-09-30T17:23:29.927Z,13.91
2022-09-30T17:25:56.412Z,13.89
2022-09-30T17:28:23.753Z,13.74
2022-09-30T17:30:50.472Z,13.79
2022-09-30T17:33:19.741Z,13.74
2022-09-30T17:35:59.296Z,13.49
2022-09-30T17:38:25.970Z,13.56
2022-09-30T17:41:10.970Z,13.46
2022-09-30T17:43:37.520Z,13.29
2022-09-30T17:46:04.047Z,13.21
2022-09-30T17:48:31.024Z,13.05
2022-09-30T17:50:57.463Z,13.19
2022-09-30T17:53:24.148Z,12.90
2022-09-30T17:56:04.555Z,12.67
2022-09-30T17:58:31.007Z,12.96
2022-09-30T18:00:59.380Z,12.63
2022-09-30T18:03:28.130Z,12.53
2022-09-30T18:05:58.815Z,12.61
2022-09-30T18:08:26.103Z,12.75
2022-09-30T18:10:53.463Z,12.86
2022-09-30T18:13:19.969Z,12.94
2022-09-30T18:15:46.719Z,12.80
2022-09-30T18:18:13.816Z,12.93
2022-09-30T18:20:44.963Z,12.83
2022-09-30T18:23:12.120Z,12.59
2022-09-30T18:25:39.549Z,12.50
2022-09-30T18:28:08.723Z,12.67
2022-09-30T18:30:39.344Z,12.77
2022-09-30T18:33:07.288Z,12.80
2022-09-30T18:35:39.082Z,12.65
2022-09-30T18:38:06.806Z,12.62
2022-09-30T18:40:33.803Z,12.62
2022-09-30T18:43:02.805Z,12.52
2022-09-30T18:45:30.912Z,12.61
2022-09-30T18:48:00.307Z,12.38
2022-09-30T18:50:28.600Z,12.26
2022-09-30T18:52:55.392Z,12.28
2022-09-30T18:55:22.465Z,12.06
2022-09-30T18:57:50.154Z,11.89
2022-09-30T19:00:18.062Z,11.81
2022-09-30T19:02:44.718Z,11.57
2022-09-30T19:05:13.370Z,11.53
2022-09-30T19:07:39.898Z,11.51
2022-09-30T19:10:08.426Z,11.56
2022-09-30T19:12:36.540Z,11.67
2022-09-30T19:15:05.176Z,11.59
2022-09-30T19:17:33.053Z,11.66
2022-09-30T19:20:00.602Z,11.80
2022-09-30T19:22:28.232Z,11.65
2022-09-30T19:24:54.885Z,11.72
2022-09-30T19:27:26.207Z,11.58
2022-09-30T19:29:57.252Z,11.73
2022-09-30T19:32:26.477Z,11.58
2022-09-30T19:35:03.942Z,11.65
2022-09-30T19:37:31.781Z,11.60
2022-09-30T19:40:00.322Z,11.69
2022-09-30T19:42:29.766Z,11.78
2022-09-30T19:44:56.198Z,11.60
2022-09-30T19:47:22.605Z,11.59
2022-09-30T19:49:49.202Z,11.67
2022-09-30T19:52:21.974Z,11.69
2022-09-30T19:54:50.697Z,11.73
2022-09-30T19:57:17.131Z,11.41
2022-09-30T19:59:43.782Z,11.49
2022-09-30T20:02:11.526Z,11.57
2022-09-30T20:04:39.578Z,11.58
2022-09-30T20:07:05.998Z,11.62
2022-09-30T20:09:32.462Z,11.49
2022-09-30T20:11:58.922Z,11.48
2022-09-30T20:14:43.873Z,11.47
2022-09-30T20:17:12.065Z,11.35
2022-09-30T20:19:38.510Z,11.33
2022-09-30T20:22:05.333Z,11.41
2022-09-30T20:24:31.949Z,11.37
2022-09-30T20:26:58.339Z,11.31
2022-09-30T20:29:24.781Z,11.25
2022-09-30T20:31:51.374Z,11.30
2022-09-30T20:34:18.865Z,11.27
2022-09-30T20:36:45.418Z,11.27
2022-09-30T20:39:12.682Z,11.13
2022-09-30T20:41:39.954Z,11.10
2022-09-30T20:44:12.007Z,11.07
2022-09-30T20:46:41.427Z,10.93
2022-09-30T20:49:08.023Z,10.88
2022-09-30T20:51:34.909Z,10.92
2022-09-30T20:54:01.610Z,10.99
2022-09-30T20:56:39.338Z,10.91
2022-09-30T20:59:17.066Z,10.89
2022-09-30T21:01:43.529Z,10.87
2022-09-30T21:04:10.063Z,10.87
2022-09-30T21:06:36.517Z,10.73
2022-09-30T21:09:03.672Z,10.74
2022-09-30T21:11:30.427Z,10.87
2022-09-30T21:13:57.501Z,10.72
2022-09-30T21:16:25.357Z,10.83
2022-09-30T21:18:53.177Z,10.52
2022-09-30T21:21:21.407Z,10.71
2022-09-30T21:23:48.061Z,10.59
2022-09-30T21:26:17.202Z,10.53
2022-09-30T21:28:49.327Z,10.53
2022-09-30T21:31:26.504Z,10.47
2022-09-30T21:33:56.337Z,10.25
2022-09-30T21:36:23.310Z,10.54
2022-09-30T21:38:50.250Z,10.52
2022-09-30T21:41:17.827Z,10.23
2022-09-30T21:43:44.393Z,10.36
2022-09-30T21:46:12.758Z,10.39
2022-09-30T21:48:39.598Z,10.42
2022-09-30T21:51:07.129Z,10.43
2022-09-30T21:53:34.281Z,10.24
2022-09-30T21:56:02.383Z,10.09
2022-09-30T21:58:31.668Z,10.36
